Time;durP1;ratioP1;P1;durP2;ratioP2;P2;SDS_P1;SDS_P2;PMS_P1;PMS_P2;Temp;Humidity;BMP_temperature;BMP_pressure;BME280_temperature;BME280_humidity;BME280_pressure;Samples;Min_cycle;Max_cycle;Signal;HPM_P1;HPM_P2
2023/07/07 00:00:28;;;;;;;10.68;4.82;;;20.70;82.60;;;;;;4247378;27;20070;-52
2023/07/07 00:02:30;;;;;;;6.88;4.30;;;20.60;84.60;;;;;;4247266;27;20122;-52
2023/07/07 00:04:32;;;;;;;10.10;4.65;;;20.60;84.20;;;;;;4246910;27;20498;-52
2023/07/07 00:06:35;;;;;;;7.88;4.15;;;20.60;83.60;;;;;;4247173;27;20043;-53
2023/07/07 00:08:37;;;;;;;7.38;4.25;;;20.60;83.70;;;;;;4247508;27;20527;-52
2023/07/07 00:10:42;;;;;;;9.65;4.43;;;20.60;83.20;;;;;;4247639;27;20054;-52
2023/07/07 00:12:46;;;;;;;11.05;4.82;;;20.60;82.30;;;;;;4247405;27;20046;-52
2023/07/07 00:14:50;;;;;;;12.02;4.32;;;20.60;81.40;;;;;;4246827;27;20499;-52
2023/07/07 00:16:52;;;;;;;7.13;4.03;;;20.70;80.80;;;;;;4246833;27;20070;-52
2023/07/07 00:18:55;;;;;;;7.78;3.88;;;20.60;83.00;;;;;;4247529;27;20085;-52
2023/07/07 00:20:59;;;;;;;8.35;4.65;;;20.60;82.10;;;;;;4247592;27;20418;-53
2023/07/07 00:23:02;;;;;;;9.65;4.55;;;20.60;81.50;;;;;;4247476;28;20374;-54
2023/07/07 00:25:06;;;;;;;10.70;4.50;;;20.70;80.80;;;;;;4246756;28;20070;-53
2023/07/07 00:27:08;;;;;;;8.03;3.93;;;20.70;81.50;;;;;;4247375;28;20043;-50
2023/07/07 00:29:11;;;;;;;7.13;4.18;;;20.70;81.30;;;;;;4247515;28;20049;-50
2023/07/07 00:31:14;;;;;;;9.40;4.13;;;20.60;81.50;;;;;;4247377;28;20051;-51
2023/07/07 00:33:16;;;;;;;6.78;4.20;;;20.60;81.80;;;;;;4229301;28;20088;-51
2023/07/07 00:35:18;;;;;;;9.57;4.78;;;20.60;81.80;;;;;;4247981;28;20479;-50
2023/07/07 00:37:20;;;;;;;8.88;4.47;;;20.60;83.70;;;;;;4248014;28;20126;-50
2023/07/07 00:39:22;;;;;;;9.00;3.47;;;20.50;83.40;;;;;;4247619;28;20414;-50
2023/07/07 00:41:24;;;;;;;8.43;3.95;;;20.50;82.10;;;;;;4247429;28;20425;-53
2023/07/07 00:43:27;;;;;;;8.70;3.92;;;20.50;82.70;;;;;;4247381;28;20055;-50
2023/07/07 00:45:30;;;;;;;7.55;4.05;;;20.50;82.70;;;;;;4246114;28;20039;-50
2023/07/07 00:47:33;;;;;;;9.07;4.15;;;20.50;81.80;;;;;;4228857;28;20044;-60
2023/07/07 00:49:35;;;;;;;11.15;4.25;;;20.50;81.90;;;;;;4247858;28;20047;-53
2023/07/07 00:51:41;;;;;;;8.60;3.92;;;20.60;81.40;;;;;;4250501;27;20050;-49
2023/07/07 00:53:47;;;;;;;8.27;4.13;;;20.60;81.10;;;;;;4250754;27;20047;-53
2023/07/07 00:55:54;;;;;;;15.27;4.78;;;20.60;81.20;;;;;;4249583;27;20083;-49
2023/07/07 00:58:01;;;;;;;9.63;4.40;;;20.50;81.30;;;;;;4250614;27;20073;-51
2023/07/07 01:00:05;;;;;;;10.93;4.63;;;20.50;81.70;;;;;;4250255;27;20435;-50
2023/07/07 01:02:14;;;;;;;9.73;5.20;;;20.50;81.90;;;;;;4250534;27;20046;-51
2023/07/07 01:04:17;;;;;;;10.80;5.60;;;20.40;82.00;;;;;;4250548;27;20043;-50
2023/07/07 01:06:24;;;;;;;8.80;4.57;;;20.40;82.30;;;;;;4249766;27;20047;-50
2023/07/07 01:08:27;;;;;;;9.57;4.85;;;20.40;82.40;;;;;;4251748;27;20050;-51
2023/07/07 01:10:29;;;;;;;8.70;4.90;;;20.40;82.50;;;;;;4251319;27;20046;-69
2023/07/07 01:12:31;;;;;;;10.88;4.63;;;20.40;82.60;;;;;;4233663;28;20032;-58
2023/07/07 01:14:33;;;;;;;10.88;5.05;;;20.30;83.20;;;;;;4251637;27;20047;-58
2023/07/07 01:16:41;;;;;;;7.70;4.40;;;20.30;83.00;;;;;;4251580;27;20053;-66
2023/07/07 01:18:53;;;;;;;13.52;4.97;;;20.30;82.60;;;;;;4251831;27;20096;-53
2023/07/07 01:21:03;;;;;;;13.77;5.20;;;20.40;82.30;;;;;;4252073;27;20354;-51
2023/07/07 01:23:50;;;;;;;8.93;4.35;;;20.30;82.30;;;;;;4250706;27;20070;-50
2023/07/07 01:26:17;;;;;;;8.40;4.28;;;20.20;82.70;;;;;;4250734;27;20130;-51
2023/07/07 01:28:45;;;;;;;7.85;4.25;;;20.20;82.90;;;;;;4251153;27;20039;-50
2023/07/07 01:30:52;;;;;;;8.85;4.60;;;20.20;83.00;;;;;;4250816;27;20045;-50
2023/07/07 01:32:54;;;;;;;9.93;3.83;;;20.10;83.50;;;;;;4250048;27;20047;-50
2023/07/07 01:34:59;;;;;;;6.63;3.95;;;20.10;83.90;;;;;;4249346;27;20047;-50
2023/07/07 01:37:01;;;;;;;8.55;4.05;;;20.10;83.60;;;;;;4250120;27;20039;-50
2023/07/07 01:39:04;;;;;;;8.27;4.45;;;20.10;83.50;;;;;;4249918;27;20046;-50
2023/07/07 01:41:25;;;;;;;6.53;3.60;;;20.10;83.70;;;;;;4249759;27;20062;-50
2023/07/07 01:43:36;;;;;;;9.43;4.50;;;20.10;84.70;;;;;;4249472;27;20047;-50
2023/07/07 01:45:44;;;;;;;7.78;4.07;;;20.10;84.30;;;;;;4249192;27;20043;-53
2023/07/07 01:47:52;;;;;;;10.13;4.95;;;20.00;84.10;;;;;;4251021;27;20173;-51
2023/07/07 01:49:58;;;;;;;9.73;4.20;;;19.90;84.10;;;;;;4251722;27;20051;-59
2023/07/07 01:52:05;;;;;;;13.82;4.40;;;19.90;84.60;;;;;;4250930;27;20572;-53
2023/07/07 01:54:10;;;;;;;9.90;4.43;;;19.90;84.10;;;;;;4249775;27;20043;-53
2023/07/07 01:56:27;;;;;;;8.40;3.97;;;19.90;84.20;;;;;;4249022;27;20438;-53
2023/07/07 01:58:32;;;;;;;8.85;4.47;;;19.90;84.10;;;;;;4231456;28;20495;-53
2023/07/07 02:00:34;;;;;;;;;;;19.80;84.60;;;;;;4250229;27;20417;-52
2023/07/07 02:02:37;;;;;;;8.77;4.15;;;19.70;85.20;;;;;;4248894;27;19926;-52
2023/07/07 02:04:40;;;;;;;11.70;4.47;;;19.70;85.80;;;;;;4249903;27;20427;-50
2023/07/07 02:06:42;;;;;;;10.30;4.25;;;19.70;85.50;;;;;;4248953;27;20039;-50
2023/07/07 02:08:44;;;;;;;8.68;4.57;;;19.70;85.20;;;;;;4231424;28;20233;-49
2023/07/07 02:10:47;;;;;;;10.90;4.05;;;19.70;85.30;;;;;;4249553;27;20049;-52
2023/07/07 02:12:49;;;;;;;10.30;4.72;;;19.70;85.30;;;;;;4249205;27;20039;-52
2023/07/07 02:14:51;;;;;;;9.35;3.88;;;19.70;85.40;;;;;;4248742;27;20051;-51
2023/07/07 02:16:53;;;;;;;9.52;3.85;;;19.60;86.30;;;;;;4231286;28;20051;-50
2023/07/07 02:18:56;;;;;;;6.35;3.65;;;19.60;86.10;;;;;;4249480;27;20073;-53
2023/07/07 02:20:59;;;;;;;9.18;4.10;;;19.50;86.30;;;;;;4249784;27;20044;-52
2023/07/07 02:23:01;;;;;;;13.90;4.17;;;19.60;86.40;;;;;;4249438;27;20043;-57
2023/07/07 02:25:04;;;;;;;10.00;4.30;;;19.50;86.30;;;;;;4248726;27;20050;-53
2023/07/07 02:27:10;;;;;;;8.48;3.88;;;19.50;86.50;;;;;;4230650;28;20052;-52
2023/07/07 02:29:12;;;;;;;8.60;4.20;;;19.50;86.40;;;;;;4249295;27;20040;-52
2023/07/07 02:31:14;;;;;;;10.82;3.95;;;19.50;86.40;;;;;;4249308;27;20051;-52
2023/07/07 02:33:17;;;;;;;11.85;4.18;;;19.40;86.70;;;;;;4231000;28;20043;-52
2023/07/07 02:35:19;;;;;;;7.75;3.65;;;19.40;86.70;;;;;;4248177;27;20092;-50
2023/07/07 02:37:23;;;;;;;8.23;3.70;;;19.40;86.80;;;;;;4248814;27;20489;-50
2023/07/07 02:39:26;;;;;;;6.35;3.80;;;19.30;86.60;;;;;;4249182;27;20043;-50
2023/07/07 02:41:28;;;;;;;11.63;4.30;;;19.40;86.60;;;;;;4248705;27;20063;-50
2023/07/07 02:43:31;;;;;;;10.25;3.70;;;19.40;86.30;;;;;;4249179;27;20071;-52
2023/07/07 02:45:33;;;;;;;12.23;3.22;;;19.30;86.60;;;;;;4248097;27;20561;-50
2023/07/07 02:47:35;;;;;;;8.05;3.30;;;19.30;86.90;;;;;;4249031;27;20127;-51
2023/07/07 02:49:37;;;;;;;9.35;3.55;;;19.30;87.30;;;;;;4249285;27;20043;-50
2023/07/07 02:51:39;;;;;;;9.85;3.72;;;19.30;86.80;;;;;;4249259;27;20050;-54
2023/07/07 02:53:43;;;;;;;6.63;3.30;;;19.20;86.90;;;;;;4249000;27;20039;-50
2023/07/07 02:55:45;;;;;;;5.15;3.55;;;19.30;87.20;;;;;;4247456;27;20134;-52
2023/07/07 02:57:47;;;;;;;9.55;3.83;;;19.20;87.50;;;;;;4249039;27;20039;-53
2023/07/07 02:59:49;;;;;;;11.05;3.75;;;19.30;87.50;;;;;;4230938;28;20052;-52
2023/07/07 03:01:51;;;;;;;12.20;4.15;;;19.20;87.40;;;;;;4248976;27;20039;-52
2023/07/07 03:03:56;;;;;;;10.13;3.50;;;19.20;87.60;;;;;;4249234;27;20051;-52
2023/07/07 03:06:02;;;;;;;9.30;3.35;;;19.10;87.60;;;;;;4248133;27;20043;-52
2023/07/07 03:08:04;;;;;;;9.20;3.50;;;19.20;88.20;;;;;;4248689;27;20054;-52
2023/07/07 03:10:09;;;;;;;8.35;3.40;;;19.10;87.40;;;;;;4248908;27;20126;-52
2023/07/07 03:12:11;;;;;;;5.80;3.80;;;19.10;88.20;;;;;;4249222;27;20460;-52
2023/07/07 03:14:16;;;;;;;7.63;4.07;;;19.10;88.50;;;;;;4248470;27;20126;-52
2023/07/07 03:16:21;;;;;;;10.57;3.65;;;19.10;88.30;;;;;;4247767;27;20047;-51
2023/07/07 03:18:23;;;;;;;7.13;3.47;;;19.10;88.00;;;;;;4248428;27;20122;-52
2023/07/07 03:20:26;;;;;;;4.55;3.08;;;19.00;87.80;;;;;;4248335;27;20118;-50
2023/07/07 03:22:29;;;;;;;7.72;3.58;;;19.00;88.20;;;;;;4248272;27;20039;-52
2023/07/07 03:24:31;;;;;;;8.15;3.63;;;19.00;87.80;;;;;;4247784;27;20158;-52
2023/07/07 03:26:35;;;;;;;4.85;2.97;;;19.00;88.10;;;;;;4247329;27;20111;-52
2023/07/07 03:28:37;;;;;;;6.63;3.13;;;19.00;88.20;;;;;;4248323;27;20074;-51
2023/07/07 03:30:39;;;;;;;7.22;3.35;;;19.00;89.20;;;;;;4248286;27;20044;-51
2023/07/07 03:32:41;;;;;;;8.93;3.38;;;18.90;89.00;;;;;;4248040;27;20095;-49
2023/07/07 03:34:43;;;;;;;5.90;2.85;;;18.90;89.20;;;;;;4230225;28;20051;-49
2023/07/07 03:36:46;;;;;;;6.72;3.28;;;18.90;89.60;;;;;;4247258;27;20044;-50
2023/07/07 03:38:48;;;;;;;6.55;3.17;;;18.90;89.90;;;;;;4248311;27;20405;-49
2023/07/07 03:40:50;;;;;;;10.00;3.97;;;18.90;89.70;;;;;;4247793;27;20043;-49
2023/07/07 03:42:54;;;;;;;10.77;3.67;;;18.90;89.60;;;;;;4248160;27;20043;-50
2023/07/07 03:44:56;;;;;;;7.97;3.75;;;18.80;88.70;;;;;;4248025;27;20130;-51
2023/07/07 03:46:58;;;;;;;8.02;3.25;;;18.80;88.80;;;;;;4246974;27;20047;-51
2023/07/07 03:49:01;;;;;;;7.88;3.38;;;18.80;88.50;;;;;;4248256;27;20043;-51
2023/07/07 03:51:04;;;;;;;16.85;4.32;;;18.90;88.20;;;;;;4248162;27;20077;-52
2023/07/07 03:53:06;;;;;;;9.75;3.70;;;18.90;88.10;;;;;;4247886;27;20130;-51
2023/07/07 03:55:08;;;;;;;6.30;2.90;;;18.80;88.40;;;;;;4247214;27;20434;-52
2023/07/07 03:57:11;;;;;;;10.65;3.55;;;18.80;90.00;;;;;;4247596;27;20051;-52
2023/07/07 03:59:14;;;;;;;10.63;3.53;;;18.80;90.00;;;;;;4229582;28;20055;-52
2023/07/07 04:01:17;;;;;;;12.35;3.97;;;18.80;90.00;;;;;;4247858;27;20609;-52
2023/07/07 04:03:19;;;;;;;6.90;3.33;;;18.70;89.80;;;;;;4247629;27;20047;-52
2023/07/07 04:05:22;;;;;;;10.00;3.60;;;18.80;89.30;;;;;;4247182;27;20096;-52
2023/07/07 04:07:24;;;;;;;10.85;3.95;;;18.80;88.80;;;;;;4247949;27;20050;-54
2023/07/07 04:09:26;;;;;;;9.45;3.60;;;18.80;89.20;;;;;;4248146;27;20046;-54
2023/07/07 04:11:31;;;;;;;15.75;6.05;;;18.80;89.20;;;;;;4247963;27;20043;-52
2023/07/07 04:13:35;;;;;;;13.05;4.13;;;18.80;88.90;;;;;;4247891;27;20114;-53
2023/07/07 04:15:39;;;;;;;7.50;3.92;;;18.80;88.80;;;;;;4247210;27;20042;-50
2023/07/07 04:17:41;;;;;;;7.05;3.58;;;18.80;88.50;;;;;;4247698;27;20061;-52
2023/07/07 04:19:43;;;;;;;5.35;3.25;;;18.80;88.10;;;;;;4247933;27;20074;-51
2023/07/07 04:21:45;;;;;;;6.80;3.65;;;18.90;88.90;;;;;;4248036;27;20054;-50
2023/07/07 04:23:50;;;;;;;8.18;3.35;;;18.90;88.40;;;;;;4247183;27;20082;-51
2023/07/07 04:25:52;;;;;;;;;;;18.90;88.30;;;;;;4248512;27;20039;-50
2023/07/07 04:27:54;;;;;;;13.20;4.25;;;18.80;88.70;;;;;;4248914;28;20382;-50
2023/07/07 04:29:56;;;;;;;12.60;3.55;;;18.80;88.20;;;;;;4248086;28;20097;-51
2023/07/07 04:32:00;;;;;;;13.38;4.95;;;18.80;88.10;;;;;;4248050;28;20043;-50
2023/07/07 04:34:03;;;;;;;16.13;4.85;;;18.80;87.90;;;;;;4247921;28;20126;-50
2023/07/07 04:36:07;;;;;;;11.45;3.95;;;18.80;88.20;;;;;;4246803;28;20134;-50
2023/07/07 04:38:10;;;;;;;11.02;3.60;;;18.90;88.20;;;;;;4247370;28;20126;-50
2023/07/07 04:40:12;;;;;;;17.27;3.88;;;18.90;88.50;;;;;;4247427;28;20047;-50
2023/07/07 04:42:14;;;;;;;15.07;4.93;;;18.90;88.80;;;;;;4247639;28;20047;-50
2023/07/07 04:44:16;;;;;;;11.60;5.50;;;19.00;88.20;;;;;;4247494;28;20477;-50
2023/07/07 04:46:22;;;;;;;6.20;3.42;;;19.10;88.10;;;;;;4246672;28;20071;-49
2023/07/07 04:48:26;;;;;;;17.50;4.55;;;19.20;88.30;;;;;;4247449;28;20394;-50
2023/07/07 04:50:28;;;;;;;10.50;4.32;;;19.10;87.60;;;;;;4229454;28;20048;-49
2023/07/07 04:52:30;;;;;;;8.70;4.18;;;19.20;87.90;;;;;;4247070;28;20082;-49
2023/07/07 04:54:35;;;;;;;17.50;4.93;;;19.30;88.10;;;;;;4247423;28;20058;-49
2023/07/07 04:56:37;;;;;;;12.65;4.43;;;19.30;87.90;;;;;;4246336;28;20100;-57
2023/07/07 04:58:40;;;;;;;13.27;4.45;;;19.40;87.80;;;;;;4247673;28;20728;-54
2023/07/07 05:00:42;;;;;;;20.95;5.50;;;19.40;89.50;;;;;;4247581;27;20135;-50
2023/07/07 05:02:44;;;;;;;10.45;4.22;;;19.40;89.00;;;;;;4228797;28;20054;-50
2023/07/07 05:04:48;;;;;;;16.25;4.07;;;19.50;87.80;;;;;;4247215;28;20072;-49
2023/07/07 05:06:50;;;;;;;8.90;4.25;;;19.50;87.80;;;;;;4245794;28;20070;-50
2023/07/07 05:08:53;;;;;;;9.45;3.70;;;19.60;87.20;;;;;;4229196;28;20053;-50
2023/07/07 05:10:55;;;;;;;10.55;4.05;;;19.70;87.20;;;;;;4247499;28;20441;-49
2023/07/07 05:12:57;;;;;;;10.07;4.03;;;19.70;86.90;;;;;;4247377;28;20126;-52
2023/07/07 05:14:59;;;;;;;20.88;4.40;;;19.80;86.50;;;;;;4247331;28;20047;-51
2023/07/07 05:17:01;;;;;;;16.40;4.53;;;19.80;87.10;;;;;;4246223;28;20118;-51
2023/07/07 05:19:04;;;;;;;17.88;4.70;;;19.80;87.20;;;;;;4247130;28;20126;-54
2023/07/07 05:21:10;;;;;;;10.95;3.78;;;19.90;86.50;;;;;;4228737;28;20451;-54
2023/07/07 05:23:12;;;;;;;10.05;4.10;;;19.90;86.30;;;;;;4247068;28;20149;-54
2023/07/07 05:25:14;;;;;;;8.98;3.90;;;19.90;86.20;;;;;;4246965;28;20047;-53
2023/07/07 05:27:16;;;;;;;11.43;3.63;;;19.90;85.80;;;;;;4228160;28;20047;-50
2023/07/07 05:29:19;;;;;;;7.90;4.35;;;19.90;85.50;;;;;;4247894;28;20043;-55
2023/07/07 05:31:22;;;;;;;12.85;4.75;;;19.90;85.50;;;;;;4247144;28;20118;-50
2023/07/07 05:33:26;;;;;;;11.40;4.22;;;20.00;85.30;;;;;;4246977;28;20047;-52
2023/07/07 05:35:28;;;;;;;10.60;4.22;;;19.90;85.00;;;;;;4246183;28;20047;-53
2023/07/07 05:37:31;;;;;;;11.68;3.72;;;20.00;84.90;;;;;;4247078;27;20050;-52
2023/07/07 05:39:33;;;;;;;12.20;4.35;;;19.90;84.70;;;;;;4250253;27;20047;-53
2023/07/07 05:41:35;;;;;;;10.73;3.85;;;19.90;84.90;;;;;;4250221;27;20166;-53
2023/07/07 05:43:37;;;;;;;10.63;4.05;;;19.90;84.80;;;;;;4249960;27;20130;-52
2023/07/07 05:45:40;;;;;;;12.20;4.07;;;19.90;84.80;;;;;;4230582;28;20066;-54
2023/07/07 05:47:42;;;;;;;15.75;4.57;;;19.90;84.80;;;;;;4249576;27;20046;-54
2023/07/07 05:49:44;;;;;;;8.30;3.40;;;19.90;84.90;;;;;;4231524;28;20078;-54
2023/07/07 05:51:47;;;;;;;13.18;4.53;;;20.00;85.00;;;;;;4249968;27;20467;-53
2023/07/07 05:53:50;;;;;;;13.27;4.25;;;20.00;85.20;;;;;;4249866;27;20043;-53
2023/07/07 05:55:57;;;;;;;15.48;4.13;;;20.00;85.00;;;;;;4248981;27;20054;-54
2023/07/07 05:57:59;;;;;;;13.82;4.43;;;20.00;84.90;;;;;;4250086;27;20447;-51
2023/07/07 06:00:02;;;;;;;11.82;3.80;;;20.10;85.00;;;;;;4249908;27;20067;-50
2023/07/07 06:02:05;;;;;;;13.00;4.40;;;20.10;85.10;;;;;;4249709;27;20043;-52
2023/07/07 06:04:07;;;;;;;10.38;4.30;;;20.10;85.10;;;;;;4249258;27;20096;-52
2023/07/07 06:06:10;;;;;;;14.20;5.07;;;20.10;84.90;;;;;;4248582;27;20092;-53
2023/07/07 06:08:12;;;;;;;12.68;5.28;;;20.10;84.70;;;;;;4249610;27;20458;-53
2023/07/07 06:10:15;;;;;;;15.32;4.18;;;20.10;85.00;;;;;;4249458;27;20046;-53
2023/07/07 06:12:17;;;;;;;19.67;4.65;;;20.10;85.00;;;;;;4249449;27;20508;-53
2023/07/07 06:14:20;;;;;;;13.77;4.38;;;20.10;85.10;;;;;;4249674;27;20058;-53
2023/07/07 06:16:22;;;;;;;19.70;5.07;;;20.20;85.10;;;;;;4230485;28;20051;-52
2023/07/07 06:18:24;;;;;;;16.88;5.00;;;20.20;85.20;;;;;;4249630;27;20043;-53
2023/07/07 06:20:26;;;;;;;16.95;4.78;;;20.20;85.10;;;;;;4249498;27;20057;-53
2023/07/07 06:22:29;;;;;;;16.65;4.93;;;20.20;85.40;;;;;;4249474;27;20074;-53
2023/07/07 06:24:31;;;;;;;22.80;5.00;;;20.20;85.20;;;;;;4248874;27;20055;-53
2023/07/07 06:26:34;;;;;;;14.82;4.85;;;20.20;85.40;;;;;;4248088;27;20043;-53
2023/07/07 06:28:36;;;;;;;14.60;5.05;;;20.20;85.40;;;;;;4249344;27;20043;-52
2023/07/07 06:30:38;;;;;;;18.55;4.68;;;20.30;85.30;;;;;;4249043;27;20047;-53
2023/07/07 06:32:40;;;;;;;16.15;4.95;;;20.40;85.40;;;;;;4249197;27;20130;-53
2023/07/07 06:34:42;;;;;;;26.13;4.78;;;20.40;85.20;;;;;;4249089;27;20051;-53
2023/07/07 06:36:45;;;;;;;27.20;5.80;;;20.50;85.40;;;;;;4248123;27;20039;-53
2023/07/07 06:38:47;;;;;;;24.92;5.28;;;20.60;85.50;;;;;;4249298;27;20049;-53
2023/07/07 06:40:49;;;;;;;23.85;5.32;;;20.60;85.00;;;;;;4249190;27;20053;-51
2023/07/07 06:42:55;;;;;;;30.35;6.50;;;20.70;84.80;;;;;;4248829;27;20047;-52
2023/07/07 06:44:57;;;;;;;20.88;5.90;;;20.70;84.40;;;;;;4248839;27;20077;-52
2023/07/07 06:46:59;;;;;;;26.95;5.32;;;20.80;84.50;;;;;;4247947;27;20122;-53
2023/07/07 06:49:04;;;;;;;17.40;4.82;;;20.90;84.60;;;;;;4229786;28;20048;-53
2023/07/07 06:51:06;;;;;;;12.18;4.35;;;20.90;84.30;;;;;;4248843;27;20050;-53
2023/07/07 06:53:10;;;;;;;15.40;5.18;;;21.00;83.80;;;;;;4248924;27;20439;-53
2023/07/07 06:55:12;;;;;;;12.75;4.10;;;21.00;83.20;;;;;;4248854;27;20043;-50
2023/07/07 06:57:14;;;;;;;13.32;4.20;;;21.10;83.50;;;;;;4247981;27;20126;-55
2023/07/07 06:59:18;;;;;;;12.45;4.35;;;21.20;84.30;;;;;;4249156;27;20051;-51
2023/07/07 07:01:20;;;;;;;10.70;4.55;;;21.20;83.70;;;;;;4248726;27;20074;-51
2023/07/07 07:03:22;;;;;;;6.65;4.07;;;21.40;83.10;;;;;;4248270;27;20047;-56
2023/07/07 07:05:25;;;;;;;16.75;4.45;;;21.50;82.50;;;;;;4248708;27;20054;-53
2023/07/07 07:07:28;;;;;;;19.20;5.00;;;21.60;81.80;;;;;;4247405;27;20043;-52
2023/07/07 07:09:30;;;;;;;18.33;4.82;;;21.70;82.00;;;;;;4248873;27;20128;-51
2023/07/07 07:11:32;;;;;;;17.90;4.82;;;21.80;81.50;;;;;;4248445;27;20043;-53
2023/07/07 07:13:34;;;;;;;20.17;4.90;;;22.00;81.20;;;;;;4248805;27;20051;-53
2023/07/07 07:15:37;;;;;;;18.73;4.88;;;22.20;80.90;;;;;;4248566;27;20051;-50
2023/07/07 07:17:40;;;;;;;22.98;5.65;;;22.40;80.90;;;;;;4246941;27;20047;-51
2023/07/07 07:19:42;;;;;;;16.30;4.05;;;22.40;80.10;;;;;;4248324;27;20050;-52
2023/07/07 07:21:44;;;;;;;13.75;4.10;;;22.40;80.50;;;;;;4248426;27;20053;-50
2023/07/07 07:23:47;;;;;;;19.00;5.05;;;22.60;80.30;;;;;;4247941;27;20055;-50
2023/07/07 07:25:49;;;;;;;16.90;4.63;;;22.90;79.70;;;;;;4247587;27;20043;-50
2023/07/07 07:27:51;;;;;;;23.88;5.20;;;23.10;79.60;;;;;;4247957;27;20054;-50
2023/07/07 07:29:53;;;;;;;13.05;4.30;;;23.20;79.10;;;;;;4248477;27;20126;-50
2023/07/07 07:31:56;;;;;;;14.93;4.55;;;23.30;80.70;;;;;;4249085;27;20126;-56
2023/07/07 07:34:19;;;;;;;20.60;4.63;;;23.50;78.70;;;;;;4249893;27;20103;-52
2023/07/07 07:36:22;;;;;;;12.30;4.50;;;23.60;79.60;;;;;;4247984;27;20133;-50
2023/07/07 07:38:25;;;;;;;15.07;6.25;;;23.60;79.10;;;;;;4248590;27;20063;-51
2023/07/07 07:40:27;;;;;;;16.95;4.47;;;23.70;80.00;;;;;;4248715;27;20055;-51
2023/07/07 07:42:29;;;;;;;23.13;4.85;;;23.70;79.00;;;;;;4249952;27;20043;-58
2023/07/07 07:44:31;;;;;;;10.30;5.38;;;23.60;78.80;;;;;;4250099;27;20047;-52
2023/07/07 07:46:33;;;;;;;8.77;3.70;;;23.70;78.80;;;;;;4247762;27;20047;-53
2023/07/07 07:48:37;;;;;;;13.05;4.15;;;23.80;79.40;;;;;;4248355;27;20486;-53
2023/07/07 07:50:39;;;;;;;15.85;3.63;;;23.90;77.80;;;;;;4248176;27;20054;-53
2023/07/07 07:52:41;;;;;;;8.90;3.97;;;24.00;77.80;;;;;;4229801;28;20099;-53
2023/07/07 07:54:44;;;;;;;10.93;4.10;;;24.20;78.00;;;;;;4247678;27;20096;-51
2023/07/07 07:56:46;;;;;;;11.25;3.92;;;24.30;77.50;;;;;;4246913;27;20042;-51
2023/07/07 07:58:48;;;;;;;9.90;3.97;;;24.50;76.00;;;;;;4248089;27;20404;-50
2023/07/07 08:00:50;;;;;;;15.40;4.10;;;24.70;78.20;;;;;;4246798;27;20513;-50
2023/07/07 08:02:52;;;;;;;11.00;4.22;;;24.90;77.40;;;;;;4247692;27;20122;-50
2023/07/07 08:04:56;;;;;;;15.75;4.30;;;25.00;76.70;;;;;;4247819;27;20074;-49
2023/07/07 08:06:58;;;;;;;7.75;4.50;;;25.00;76.20;;;;;;4228364;28;20494;-50
2023/07/07 08:09:00;;;;;;;7.03;3.60;;;24.90;75.40;;;;;;4248190;27;20135;-50
2023/07/07 08:11:02;;;;;;;14.95;4.72;;;24.80;75.70;;;;;;4248034;27;20074;-50
2023/07/07 08:13:12;;;;;;;10.38;4.05;;;24.90;76.70;;;;;;4247655;27;20081;-51
2023/07/07 08:15:14;;;;;;;10.60;4.32;;;25.10;76.30;;;;;;4247376;27;20067;-50
2023/07/07 08:17:17;;;;;;;11.50;4.32;;;25.10;76.70;;;;;;4246811;27;20046;-50
2023/07/07 08:19:19;;;;;;;8.95;4.25;;;25.20;74.70;;;;;;4247533;27;20126;-50
2023/07/07 08:21:23;;;;;;;9.23;4.38;;;25.30;75.10;;;;;;4247864;27;20125;-50
2023/07/07 08:23:25;;;;;;;6.63;3.80;;;25.40;74.80;;;;;;4247429;27;20055;-50
2023/07/07 08:25:27;;;;;;;10.07;4.10;;;25.60;75.30;;;;;;4247469;28;20062;-51
2023/07/07 08:27:29;;;;;;;13.43;4.35;;;25.70;74.80;;;;;;4246488;28;20076;-50
2023/07/07 08:29:34;;;;;;;5.38;3.70;;;25.80;74.60;;;;;;4247082;28;20039;-50
2023/07/07 08:31:36;;;;;;;9.90;5.00;;;25.90;75.10;;;;;;4247327;28;20043;-50
2023/07/07 08:33:38;;;;;;;11.23;3.95;;;26.00;74.70;;;;;;4247374;28;20043;-51
2023/07/07 08:35:58;;;;;;;9.50;4.07;;;26.00;74.90;;;;;;4247418;28;20069;-50
2023/07/07 08:38:02;;;;;;;13.07;4.93;;;26.00;74.00;;;;;;4246278;28;20134;-50
2023/07/07 08:40:05;;;;;;;10.40;4.65;;;26.00;73.80;;;;;;4247506;28;20078;-52
2023/07/07 08:42:20;;;;;;;7.65;4.38;;;26.10;73.70;;;;;;4247140;28;20078;-52
2023/07/07 08:44:25;;;;;;;10.30;4.40;;;26.20;72.60;;;;;;4246731;28;20047;-50
2023/07/07 08:46:39;;;;;;;11.50;4.80;;;26.30;73.10;;;;;;4246074;28;20043;-50
2023/07/07 08:48:50;;;;;;;10.82;4.05;;;26.40;72.70;;;;;;4247092;28;20043;-51
2023/07/07 08:50:57;;;;;;;7.78;4.40;;;26.50;72.90;;;;;;4247102;28;20490;-51
2023/07/07 08:53:16;;;;;;;194.20;16.27;;;26.70;73.10;;;;;;4247022;28;20055;-50
2023/07/07 08:55:38;;;;;;;16.08;4.90;;;26.70;73.40;;;;;;4247226;28;20047;-51
2023/07/07 08:57:47;;;;;;;10.77;4.95;;;26.80;83.90;;;;;;4246028;27;20387;-50
2023/07/07 08:59:56;;;;;;;11.82;4.70;;;26.40;79.90;;;;;;4246916;28;20054;-50
2023/07/07 09:02:07;;;;;;;7.70;4.65;;;26.30;76.00;;;;;;4247277;27;20500;-51
2023/07/07 09:04:20;;;;;;;10.30;5.05;;;26.20;75.50;;;;;;4247364;28;20112;-51
2023/07/07 09:06:40;;;;;;;11.23;5.13;;;26.10;78.00;;;;;;4245905;28;20051;-50
2023/07/07 09:08:50;;;;;;;10.38;5.60;;;26.10;76.10;;;;;;4247456;28;20054;-50
2023/07/07 09:11:12;;;;;;;10.65;4.65;;;26.00;79.00;;;;;;4247100;27;20047;-50
2023/07/07 09:13:21;;;;;;;8.02;4.78;;;26.00;79.40;;;;;;4249935;27;20043;-50
2023/07/07 09:15:26;;;;;;;11.85;4.82;;;26.00;77.00;;;;;;4250140;27;20386;-50
2023/07/07 09:17:33;;;;;;;8.15;4.57;;;26.10;76.00;;;;;;4231187;28;20425;-51
2023/07/07 09:19:39;;;;;;;8.65;4.70;;;26.20;74.80;;;;;;4250083;27;20058;-51
2023/07/07 09:21:46;;;;;;;6.97;4.70;;;26.40;74.20;;;;;;4250015;27;20047;-51
2023/07/07 09:23:54;;;;;;;7.90;4.60;;;26.40;74.20;;;;;;4249769;27;20059;-51
2023/07/07 09:26:00;;;;;;;7.50;4.80;;;26.60;74.70;;;;;;4249908;27;20050;-52
2023/07/07 09:28:07;;;;;;;9.25;4.97;;;26.90;73.80;;;;;;4248804;27;20075;-51
2023/07/07 09:30:20;;;;;;;7.60;4.25;;;27.10;73.10;;;;;;4250059;27;20074;-51
2023/07/07 09:32:22;;;;;;;11.93;4.70;;;27.20;73.20;;;;;;4249804;27;20097;-51
2023/07/07 09:34:25;;;;;;;11.18;5.38;;;27.40;73.40;;;;;;4249890;27;20055;-50
2023/07/07 09:36:33;;;;;;;7.65;4.82;;;27.40;73.50;;;;;;4248916;27;20057;-51
2023/07/07 09:38:47;;;;;;;8.73;4.65;;;27.40;71.90;;;;;;4249753;27;20118;-51
2023/07/07 09:40:58;;;;;;;8.32;5.18;;;27.50;73.70;;;;;;4249743;27;20100;-52
2023/07/07 09:43:10;;;;;;;14.15;5.07;;;27.50;72.60;;;;;;4249393;27;20051;-50
2023/07/07 09:45:23;;;;;;;8.68;3.92;;;27.50;72.00;;;;;;4231268;28;20410;-51
2023/07/07 09:47:33;;;;;;;7.50;4.38;;;27.40;73.00;;;;;;4248604;27;20069;-51
2023/07/07 09:49:42;;;;;;;11.40;4.93;;;27.50;73.50;;;;;;4249943;27;20047;-50
2023/07/07 09:51:50;;;;;;;8.50;4.78;;;27.40;73.00;;;;;;4249776;27;20054;-51
2023/07/07 09:53:53;;;;;;;10.38;4.85;;;27.40;73.40;;;;;;4249658;27;20081;-51
2023/07/07 09:55:57;;;;;;;8.85;5.90;;;27.40;71.50;;;;;;4249593;27;20074;-52
2023/07/07 09:58:05;;;;;;;8.02;5.97;;;27.40;72.00;;;;;;4248475;27;20043;-51
2023/07/07 10:00:14;;;;;;;10.43;5.35;;;27.40;71.50;;;;;;4249484;27;20092;-51
2023/07/07 10:02:21;;;;;;;9.80;4.93;;;27.50;72.10;;;;;;4249477;27;20051;-51
2023/07/07 10:04:26;;;;;;;6.50;4.78;;;27.60;72.20;;;;;;4249464;27;20108;-51
2023/07/07 10:06:35;;;;;;;9.60;5.25;;;27.60;73.10;;;;;;4230261;28;20044;-52
2023/07/07 10:08:37;;;;;;;7.05;4.82;;;27.70;72.40;;;;;;4249077;27;20487;-52
2023/07/07 10:10:55;;;;;;;8.43;4.65;;;27.60;72.10;;;;;;4231625;27;20071;-50
2023/07/07 10:12:58;;;;;;;9.10;5.63;;;27.70;72.70;;;;;;4249423;27;20047;-52
2023/07/07 10:15:00;;;;;;;14.10;7.10;;;27.80;72.80;;;;;;4249266;27;20047;-51
2023/07/07 10:17:10;;;;;;;10.35;6.57;;;27.90;72.90;;;;;;4248065;27;20043;-51
2023/07/07 10:19:13;;;;;;;10.00;5.20;;;27.90;72.30;;;;;;4249436;27;20375;-51
2023/07/07 10:21:20;;;;;;;9.05;5.68;;;27.90;71.50;;;;;;4249180;27;20122;-52
2023/07/07 10:23:22;;;;;;;7.05;5.43;;;27.90;72.20;;;;;;4248261;27;20079;-51
2023/07/07 10:25:25;;;;;;;11.93;5.40;;;27.90;71.30;;;;;;4248554;27;20050;-52
2023/07/07 10:27:27;;;;;;;10.77;5.88;;;27.80;71.30;;;;;;4248179;27;20133;-52
2023/07/07 10:29:37;;;;;;;9.50;4.82;;;27.80;72.60;;;;;;4249168;27;20122;-51
2023/07/07 10:31:42;;;;;;;7.35;4.90;;;27.80;70.80;;;;;;4249219;27;20073;-52
2023/07/07 10:33:49;;;;;;;8.80;5.00;;;27.80;71.70;;;;;;4248953;27;20050;-52
2023/07/07 10:35:52;;;;;;;5.28;4.72;;;27.80;71.60;;;;;;4249199;27;20133;-52
2023/07/07 10:37:54;;;;;;;8.00;4.97;;;27.80;71.80;;;;;;4248031;27;20049;-52
2023/07/07 10:39:58;;;;;;;6.68;5.30;;;27.90;72.00;;;;;;4248736;27;20039;-52
2023/07/07 10:42:00;;;;;;;6.13;4.53;;;27.90;71.30;;;;;;4248908;27;20122;-51
2023/07/07 10:44:02;;;;;;;6.22;4.70;;;27.90;70.80;;;;;;4248675;27;20092;-51